Huvudsida
METAR-TAF:

METAR-TAF

Flygplatser :

Sandane flygplats. Anda

Sandane, Norge

latitud: 61-50N, longitud: 006-07E, höjd: 6 m

Aktuellt väderrapport

Denna rapport gjordes för 4 timmar och 57 minuter sedan, klockan 20:50 UTC
Vind 5 kt från ost/nordost, varierande mellan nord/nordost och ost
Temperatur 3°C
Fuktighet 100%
Tryck 1030 hPa
Sikt 10 km eller mer
lätt regn, duggregn

METAR: ENSD 192050Z 06005KT 020V090 9999 -RADZ VV028 03/03 Q1030 RMK WIND 1138FT VRB04KT

Tid: 02:47 (01:47 UTC)


TAF: saknas

Aktuella väderrapporter och prognoser från 4000 flygplatser (METAR- och TAF-rapporter).

De tillgängliga stationerna syns som gula och röda prickar på kartan.

För musen över prickarna för att se namnen på stationerna.

Klicka sedan för att få väderrapporter och prognoser.

För att ändra kartan: Klicka på de gröna knapparna med ett svart kors på för att zooma in; den gröna knappen med ett streck på för att zooma ut; eller på de gröna pilarna för angränsande kartor.


METAR-TAF: